sensor_id;sensor_type;location;lat;lon;timestamp;P1;durP1;ratioP1;P2;durP2;ratioP2
68821;SDS011;55834;50.870;4.606;2022-12-18T00:01:31;26.85;;;15.73;;
68821;SDS011;55834;50.870;4.606;2022-12-18T00:03:58;34.78;;;18.38;;
68821;SDS011;55834;50.870;4.606;2022-12-18T00:06:26;29.38;;;14.15;;
68821;SDS011;55834;50.870;4.606;2022-12-18T00:08:54;40.00;;;22.60;;
68821;SDS011;55834;50.870;4.606;2022-12-18T00:11:21;44.15;;;27.20;;
68821;SDS011;55834;50.870;4.606;2022-12-18T00:13:48;30.67;;;18.17;;
68821;SDS011;55834;50.870;4.606;2022-12-18T00:16:15;29.52;;;14.65;;
68821;SDS011;55834;50.870;4.606;2022-12-18T00:18:45;33.67;;;18.88;;
68821;SDS011;55834;50.870;4.606;2022-12-18T00:21:11;42.03;;;18.27;;
68821;SDS011;55834;50.870;4.606;2022-12-18T00:23:38;36.17;;;17.55;;
68821;SDS011;55834;50.870;4.606;2022-12-18T00:26:05;38.35;;;19.40;;
68821;SDS011;55834;50.870;4.606;2022-12-18T00:28:42;28.88;;;16.75;;
68821;SDS011;55834;50.870;4.606;2022-12-18T00:31:09;24.20;;;13.10;;
68821;SDS011;55834;50.870;4.606;2022-12-18T00:33:36;30.23;;;14.18;;
68821;SDS011;55834;50.870;4.606;2022-12-18T00:36:03;29.15;;;14.98;;
68821;SDS011;55834;50.870;4.606;2022-12-18T00:38:36;29.75;;;13.20;;
68821;SDS011;55834;50.870;4.606;2022-12-18T00:41:02;27.58;;;12.30;;
68821;SDS011;55834;50.870;4.606;2022-12-18T00:43:28;27.95;;;13.05;;
68821;SDS011;55834;50.870;4.606;2022-12-18T00:45:54;28.83;;;15.02;;
68821;SDS011;55834;50.870;4.606;2022-12-18T00:48:19;25.40;;;12.77;;
68821;SDS011;55834;50.870;4.606;2022-12-18T00:50:45;29.48;;;13.02;;
68821;SDS011;55834;50.870;4.606;2022-12-18T00:53:10;32.65;;;16.27;;
68821;SDS011;55834;50.870;4.606;2022-12-18T00:55:37;28.98;;;12.55;;
68821;SDS011;55834;50.870;4.606;2022-12-18T00:58:04;29.73;;;14.23;;
68821;SDS011;55834;50.870;4.606;2022-12-18T01:00:29;28.70;;;13.30;;
68821;SDS011;55834;50.870;4.606;2022-12-18T01:02:55;30.90;;;14.33;;
68821;SDS011;55834;50.870;4.606;2022-12-18T01:05:20;31.40;;;12.77;;
68821;SDS011;55834;50.870;4.606;2022-12-18T01:07:45;24.17;;;11.00;;
68821;SDS011;55834;50.870;4.606;2022-12-18T01:10:11;27.27;;;12.73;;
68821;SDS011;55834;50.870;4.606;2022-12-18T01:12:38;27.48;;;12.68;;
68821;SDS011;55834;50.870;4.606;2022-12-18T01:15:04;26.70;;;13.98;;
68821;SDS011;55834;50.870;4.606;2022-12-18T01:17:30;30.83;;;14.50;;
68821;SDS011;55834;50.870;4.606;2022-12-18T01:19:56;27.30;;;13.60;;
68821;SDS011;55834;50.870;4.606;2022-12-18T01:22:21;29.57;;;12.83;;
68821;SDS011;55834;50.870;4.606;2022-12-18T01:24:47;28.48;;;13.75;;
68821;SDS011;55834;50.870;4.606;2022-12-18T01:27:12;27.50;;;12.98;;
68821;SDS011;55834;50.870;4.606;2022-12-18T01:29:38;27.23;;;14.20;;
68821;SDS011;55834;50.870;4.606;2022-12-18T01:32:03;24.23;;;11.53;;
68821;SDS011;55834;50.870;4.606;2022-12-18T01:34:28;35.42;;;16.33;;
68821;SDS011;55834;50.870;4.606;2022-12-18T01:36:54;24.20;;;12.90;;
68821;SDS011;55834;50.870;4.606;2022-12-18T01:39:19;27.87;;;14.90;;
68821;SDS011;55834;50.870;4.606;2022-12-18T01:41:45;34.87;;;13.73;;
68821;SDS011;55834;50.870;4.606;2022-12-18T01:50:13;32.28;;;16.45;;
68821;SDS011;55834;50.870;4.606;2022-12-18T01:52:42;32.85;;;16.55;;
68821;SDS011;55834;50.870;4.606;2022-12-18T01:55:10;26.08;;;13.00;;
68821;SDS011;55834;50.870;4.606;2022-12-18T01:57:37;28.45;;;15.52;;
68821;SDS011;55834;50.870;4.606;2022-12-18T02:00:09;24.23;;;13.55;;
68821;SDS011;55834;50.870;4.606;2022-12-18T02:02:37;25.45;;;14.48;;
68821;SDS011;55834;50.870;4.606;2022-12-18T02:05:03;24.15;;;11.65;;
68821;SDS011;55834;50.870;4.606;2022-12-18T02:10:24;25.08;;;11.80;;
68821;SDS011;55834;50.870;4.606;2022-12-18T02:15:39;26.00;;;12.35;;
68821;SDS011;55834;50.870;4.606;2022-12-18T02:18:15;24.23;;;12.48;;
68821;SDS011;55834;50.870;4.606;2022-12-18T02:20:57;25.92;;;11.35;;
68821;SDS011;55834;50.870;4.606;2022-12-18T02:29:00;29.98;;;13.40;;
68821;SDS011;55834;50.870;4.606;2022-12-18T02:31:31;31.88;;;14.98;;
68821;SDS011;55834;50.870;4.606;2022-12-18T02:34:10;29.35;;;13.52;;
68821;SDS011;55834;50.870;4.606;2022-12-18T02:36:38;22.48;;;11.23;;
68821;SDS011;55834;50.870;4.606;2022-12-18T02:39:07;27.70;;;12.77;;
68821;SDS011;55834;50.870;4.606;2022-12-18T02:41:35;27.52;;;12.80;;
68821;SDS011;55834;50.870;4.606;2022-12-18T02:44:06;27.52;;;14.02;;
68821;SDS011;55834;50.870;4.606;2022-12-18T02:46:42;29.55;;;15.00;;
68821;SDS011;55834;50.870;4.606;2022-12-18T02:56:59;27.17;;;12.60;;
68821;SDS011;55834;50.870;4.606;2022-12-18T03:00:21;25.98;;;13.02;;
68821;SDS011;55834;50.870;4.606;2022-12-18T03:02:40;33.63;;;14.82;;
68821;SDS011;55834;50.870;4.606;2022-12-18T03:08:16;30.17;;;14.00;;
68821;SDS011;55834;50.870;4.606;2022-12-18T03:10:49;26.23;;;11.85;;
68821;SDS011;55834;50.870;4.606;2022-12-18T03:13:20;24.52;;;12.32;;
68821;SDS011;55834;50.870;4.606;2022-12-18T03:15:51;30.30;;;15.02;;
68821;SDS011;55834;50.870;4.606;2022-12-18T03:18:37;28.08;;;13.15;;
68821;SDS011;55834;50.870;4.606;2022-12-18T03:21:06;28.00;;;12.20;;
68821;SDS011;55834;50.870;4.606;2022-12-18T03:23:35;29.25;;;13.82;;
68821;SDS011;55834;50.870;4.606;2022-12-18T03:26:07;27.42;;;11.13;;
68821;SDS011;55834;50.870;4.606;2022-12-18T03:28:36;22.90;;;11.95;;
68821;SDS011;55834;50.870;4.606;2022-12-18T03:31:07;23.42;;;12.15;;
68821;SDS011;55834;50.870;4.606;2022-12-18T03:33:38;27.98;;;11.77;;
68821;SDS011;55834;50.870;4.606;2022-12-18T03:36:10;24.33;;;12.10;;
68821;SDS011;55834;50.870;4.606;2022-12-18T03:38:36;29.15;;;13.20;;
68821;SDS011;55834;50.870;4.606;2022-12-18T03:43:54;29.75;;;17.02;;
68821;SDS011;55834;50.870;4.606;2022-12-18T03:46:45;26.38;;;13.27;;
68821;SDS011;55834;50.870;4.606;2022-12-18T03:52:10;29.48;;;13.55;;
68821;SDS011;55834;50.870;4.606;2022-12-18T03:54:43;23.90;;;12.30;;
68821;SDS011;55834;50.870;4.606;2022-12-18T03:57:11;25.02;;;13.48;;
68821;SDS011;55834;50.870;4.606;2022-12-18T03:59:41;25.08;;;12.75;;
68821;SDS011;55834;50.870;4.606;2022-12-18T04:02:09;24.88;;;13.07;;
68821;SDS011;55834;50.870;4.606;2022-12-18T04:04:38;24.27;;;12.25;;
68821;SDS011;55834;50.870;4.606;2022-12-18T04:07:05;28.50;;;14.35;;
68821;SDS011;55834;50.870;4.606;2022-12-18T04:09:32;23.30;;;10.85;;
68821;SDS011;55834;50.870;4.606;2022-12-18T04:11:59;26.20;;;12.25;;
68821;SDS011;55834;50.870;4.606;2022-12-18T04:14:24;22.80;;;11.85;;
68821;SDS011;55834;50.870;4.606;2022-12-18T04:16:49;22.63;;;12.07;;
68821;SDS011;55834;50.870;4.606;2022-12-18T04:19:15;27.23;;;11.67;;
68821;SDS011;55834;50.870;4.606;2022-12-18T04:21:40;21.55;;;11.18;;
68821;SDS011;55834;50.870;4.606;2022-12-18T04:24:06;23.97;;;10.90;;
68821;SDS011;55834;50.870;4.606;2022-12-18T04:26:31;26.20;;;12.82;;
68821;SDS011;55834;50.870;4.606;2022-12-18T04:28:56;34.90;;;12.63;;
68821;SDS011;55834;50.870;4.606;2022-12-18T04:31:22;22.00;;;11.37;;
68821;SDS011;55834;50.870;4.606;2022-12-18T04:33:47;24.48;;;10.57;;
68821;SDS011;55834;50.870;4.606;2022-12-18T04:36:13;19.70;;;10.43;;
68821;SDS011;55834;50.870;4.606;2022-12-18T04:38:38;22.37;;;12.60;;
68821;SDS011;55834;50.870;4.606;2022-12-18T04:41:03;28.20;;;10.30;;
68821;SDS011;55834;50.870;4.606;2022-12-18T04:43:29;22.23;;;11.53;;
68821;SDS011;55834;50.870;4.606;2022-12-18T04:46:00;26.60;;;14.20;;
68821;SDS011;55834;50.870;4.606;2022-12-18T04:48:29;25.10;;;11.98;;
68821;SDS011;55834;50.870;4.606;2022-12-18T04:50:55;24.88;;;12.38;;
68821;SDS011;55834;50.870;4.606;2022-12-18T04:53:20;26.73;;;13.10;;
68821;SDS011;55834;50.870;4.606;2022-12-18T04:55:45;29.07;;;13.03;;
68821;SDS011;55834;50.870;4.606;2022-12-18T04:58:11;26.97;;;13.27;;
68821;SDS011;55834;50.870;4.606;2022-12-18T05:00:36;32.03;;;12.83;;
68821;SDS011;55834;50.870;4.606;2022-12-18T05:03:01;29.10;;;13.53;;
68821;SDS011;55834;50.870;4.606;2022-12-18T05:05:27;26.58;;;11.77;;
68821;SDS011;55834;50.870;4.606;2022-12-18T05:07:52;26.07;;;13.23;;
68821;SDS011;55834;50.870;4.606;2022-12-18T05:10:18;25.70;;;12.90;;
68821;SDS011;55834;50.870;4.606;2022-12-18T05:12:43;27.07;;;14.20;;
68821;SDS011;55834;50.870;4.606;2022-12-18T05:15:24;25.38;;;12.48;;
68821;SDS011;55834;50.870;4.606;2022-12-18T05:20:16;26.10;;;11.90;;
68821;SDS011;55834;50.870;4.606;2022-12-18T05:22:43;29.45;;;12.38;;
68821;SDS011;55834;50.870;4.606;2022-12-18T05:25:08;29.13;;;12.93;;
68821;SDS011;55834;50.870;4.606;2022-12-18T05:27:34;25.00;;;11.43;;
68821;SDS011;55834;50.870;4.606;2022-12-18T05:29:59;25.50;;;10.67;;
68821;SDS011;55834;50.870;4.606;2022-12-18T05:32:24;24.27;;;11.97;;
68821;SDS011;55834;50.870;4.606;2022-12-18T05:34:50;20.53;;;11.10;;
68821;SDS011;55834;50.870;4.606;2022-12-18T05:37:15;26.30;;;12.27;;
68821;SDS011;55834;50.870;4.606;2022-12-18T05:39:40;24.77;;;11.87;;
68821;SDS011;55834;50.870;4.606;2022-12-18T05:42:05;27.57;;;12.83;;
68821;SDS011;55834;50.870;4.606;2022-12-18T05:44:31;29.77;;;14.77;;
68821;SDS011;55834;50.870;4.606;2022-12-18T05:46:56;27.90;;;12.70;;
68821;SDS011;55834;50.870;4.606;2022-12-18T05:49:21;26.17;;;12.10;;
68821;SDS011;55834;50.870;4.606;2022-12-18T05:51:47;30.33;;;12.83;;
68821;SDS011;55834;50.870;4.606;2022-12-18T05:54:12;26.60;;;11.60;;
68821;SDS011;55834;50.870;4.606;2022-12-18T05:56:37;29.80;;;14.10;;
68821;SDS011;55834;50.870;4.606;2022-12-18T05:59:03;27.77;;;13.45;;
68821;SDS011;55834;50.870;4.606;2022-12-18T06:01:28;33.23;;;14.60;;
68821;SDS011;55834;50.870;4.606;2022-12-18T06:03:54;26.30;;;12.63;;
68821;SDS011;55834;50.870;4.606;2022-12-18T06:06:22;26.85;;;13.13;;
68821;SDS011;55834;50.870;4.606;2022-12-18T06:08:49;34.35;;;15.27;;
68821;SDS011;55834;50.870;4.606;2022-12-18T06:11:22;35.90;;;16.27;;
68821;SDS011;55834;50.870;4.606;2022-12-18T06:13:52;33.85;;;16.77;;
68821;SDS011;55834;50.870;4.606;2022-12-18T06:16:19;31.90;;;14.60;;
68821;SDS011;55834;50.870;4.606;2022-12-18T06:18:45;22.13;;;12.32;;
68821;SDS011;55834;50.870;4.606;2022-12-18T06:21:10;25.70;;;11.52;;
68821;SDS011;55834;50.870;4.606;2022-12-18T06:23:36;36.53;;;17.17;;
68821;SDS011;55834;50.870;4.606;2022-12-18T06:26:05;30.70;;;14.77;;
68821;SDS011;55834;50.870;4.606;2022-12-18T06:28:31;28.90;;;14.95;;
68821;SDS011;55834;50.870;4.606;2022-12-18T06:30:56;30.20;;;14.87;;
68821;SDS011;55834;50.870;4.606;2022-12-18T06:33:22;25.90;;;12.67;;
68821;SDS011;55834;50.870;4.606;2022-12-18T06:35:53;28.52;;;13.18;;
68821;SDS011;55834;50.870;4.606;2022-12-18T06:38:19;24.63;;;12.60;;
68821;SDS011;55834;50.870;4.606;2022-12-18T06:40:44;24.83;;;11.68;;
68821;SDS011;55834;50.870;4.606;2022-12-18T06:43:10;28.67;;;13.97;;
68821;SDS011;55834;50.870;4.606;2022-12-18T06:45:35;27.83;;;13.17;;
68821;SDS011;55834;50.870;4.606;2022-12-18T06:48:00;28.03;;;14.37;;
68821;SDS011;55834;50.870;4.606;2022-12-18T06:50:26;26.50;;;12.55;;
68821;SDS011;55834;50.870;4.606;2022-12-18T06:52:52;30.45;;;13.35;;
68821;SDS011;55834;50.870;4.606;2022-12-18T06:55:17;26.90;;;12.33;;
68821;SDS011;55834;50.870;4.606;2022-12-18T06:57:43;21.75;;;10.98;;
68821;SDS011;55834;50.870;4.606;2022-12-18T07:00:08;30.43;;;14.07;;
68821;SDS011;55834;50.870;4.606;2022-12-18T07:02:34;23.23;;;11.45;;
68821;SDS011;55834;50.870;4.606;2022-12-18T07:05:00;29.27;;;14.05;;
68821;SDS011;55834;50.870;4.606;2022-12-18T07:07:26;23.88;;;12.38;;
68821;SDS011;55834;50.870;4.606;2022-12-18T07:09:51;24.53;;;13.20;;
68821;SDS011;55834;50.870;4.606;2022-12-18T07:12:17;30.00;;;13.90;;
68821;SDS011;55834;50.870;4.606;2022-12-18T07:14:43;26.80;;;13.85;;
68821;SDS011;55834;50.870;4.606;2022-12-18T07:17:09;25.95;;;10.55;;
68821;SDS011;55834;50.870;4.606;2022-12-18T07:19:34;19.77;;;9.40;;
68821;SDS011;55834;50.870;4.606;2022-12-18T07:21:59;24.17;;;12.33;;
68821;SDS011;55834;50.870;4.606;2022-12-18T07:24:25;30.27;;;13.48;;
68821;SDS011;55834;50.870;4.606;2022-12-18T07:26:50;22.88;;;13.05;;
68821;SDS011;55834;50.870;4.606;2022-12-18T07:29:16;20.47;;;10.17;;
68821;SDS011;55834;50.870;4.606;2022-12-18T07:31:41;25.27;;;11.93;;
68821;SDS011;55834;50.870;4.606;2022-12-18T07:34:10;20.08;;;11.13;;
68821;SDS011;55834;50.870;4.606;2022-12-18T07:36:36;25.00;;;11.55;;
68821;SDS011;55834;50.870;4.606;2022-12-18T07:39:02;23.52;;;12.13;;
68821;SDS011;55834;50.870;4.606;2022-12-18T07:41:27;25.83;;;11.77;;
68821;SDS011;55834;50.870;4.606;2022-12-18T07:43:53;27.37;;;12.77;;
68821;SDS011;55834;50.870;4.606;2022-12-18T07:46:18;27.97;;;11.40;;
68821;SDS011;55834;50.870;4.606;2022-12-18T07:48:44;24.42;;;12.95;;
68821;SDS011;55834;50.870;4.606;2022-12-18T07:51:10;27.70;;;14.63;;
68821;SDS011;55834;50.870;4.606;2022-12-18T07:53:35;27.75;;;13.77;;
68821;SDS011;55834;50.870;4.606;2022-12-18T07:56:03;50.67;;;17.60;;
68821;SDS011;55834;50.870;4.606;2022-12-18T07:58:31;38.15;;;17.00;;
68821;SDS011;55834;50.870;4.606;2022-12-18T08:01:07;43.95;;;21.10;;
68821;SDS011;55834;50.870;4.606;2022-12-18T08:03:34;20.10;;;10.82;;
68821;SDS011;55834;50.870;4.606;2022-12-18T08:06:00;16.20;;;10.15;;
68821;SDS011;55834;50.870;4.606;2022-12-18T08:08:26;17.88;;;9.10;;
68821;SDS011;55834;50.870;4.606;2022-12-18T08:10:52;16.50;;;8.48;;
68821;SDS011;55834;50.870;4.606;2022-12-18T08:13:17;14.83;;;8.00;;
68821;SDS011;55834;50.870;4.606;2022-12-18T08:15:43;19.17;;;9.73;;
68821;SDS011;55834;50.870;4.606;2022-12-18T08:18:08;14.67;;;7.37;;
68821;SDS011;55834;50.870;4.606;2022-12-18T08:20:33;19.73;;;8.77;;
68821;SDS011;55834;50.870;4.606;2022-12-18T08:22:59;19.10;;;11.13;;
68821;SDS011;55834;50.870;4.606;2022-12-18T08:25:24;13.83;;;9.63;;
68821;SDS011;55834;50.870;4.606;2022-12-18T08:27:49;15.93;;;8.97;;
68821;SDS011;55834;50.870;4.606;2022-12-18T08:30:15;16.53;;;9.57;;
68821;SDS011;55834;50.870;4.606;2022-12-18T08:32:40;12.07;;;7.73;;
68821;SDS011;55834;50.870;4.606;2022-12-18T08:35:06;15.48;;;9.75;;
68821;SDS011;55834;50.870;4.606;2022-12-18T08:37:32;18.05;;;8.65;;
68821;SDS011;55834;50.870;4.606;2022-12-18T08:39:58;15.27;;;10.88;;
68821;SDS011;55834;50.870;4.606;2022-12-18T08:42:23;16.27;;;8.70;;
68821;SDS011;55834;50.870;4.606;2022-12-18T08:45:07;14.10;;;7.38;;
68821;SDS011;55834;50.870;4.606;2022-12-18T08:47:33;15.02;;;7.13;;
68821;SDS011;55834;50.870;4.606;2022-12-18T08:49:59;25.30;;;15.20;;
68821;SDS011;55834;50.870;4.606;2022-12-18T08:52:24;29.50;;;17.07;;
68821;SDS011;55834;50.870;4.606;2022-12-18T08:54:49;15.07;;;8.73;;
68821;SDS011;55834;50.870;4.606;2022-12-18T08:57:14;16.17;;;8.33;;
68821;SDS011;55834;50.870;4.606;2022-12-18T08:59:41;15.43;;;8.88;;
68821;SDS011;55834;50.870;4.606;2022-12-18T09:02:07;11.17;;;7.67;;
68821;SDS011;55834;50.870;4.606;2022-12-18T09:04:34;16.20;;;8.07;;
68821;SDS011;55834;50.870;4.606;2022-12-18T09:07:00;16.00;;;7.27;;
68821;SDS011;55834;50.870;4.606;2022-12-18T09:09:25;14.70;;;9.37;;
68821;SDS011;55834;50.870;4.606;2022-12-18T09:11:50;13.07;;;7.37;;
68821;SDS011;55834;50.870;4.606;2022-12-18T09:14:16;18.87;;;8.80;;
68821;SDS011;55834;50.870;4.606;2022-12-18T09:16:41;13.03;;;7.17;;
68821;SDS011;55834;50.870;4.606;2022-12-18T09:19:06;15.65;;;7.47;;
68821;SDS011;55834;50.870;4.606;2022-12-18T09:21:33;22.53;;;8.77;;
68821;SDS011;55834;50.870;4.606;2022-12-18T09:24:00;15.32;;;8.60;;
68821;SDS011;55834;50.870;4.606;2022-12-18T09:26:26;19.23;;;9.25;;
68821;SDS011;55834;50.870;4.606;2022-12-18T09:28:51;17.55;;;8.57;;
68821;SDS011;55834;50.870;4.606;2022-12-18T09:31:18;16.60;;;9.23;;
68821;SDS011;55834;50.870;4.606;2022-12-18T09:33:45;16.98;;;9.23;;
68821;SDS011;55834;50.870;4.606;2022-12-18T09:36:11;17.42;;;9.07;;
68821;SDS011;55834;50.870;4.606;2022-12-18T09:38:39;16.17;;;8.02;;
68821;SDS011;55834;50.870;4.606;2022-12-18T09:41:05;14.65;;;7.70;;
68821;SDS011;55834;50.870;4.606;2022-12-18T09:43:51;16.95;;;7.45;;
68821;SDS011;55834;50.870;4.606;2022-12-18T09:46:25;13.88;;;6.25;;
68821;SDS011;55834;50.870;4.606;2022-12-18T09:48:56;11.70;;;6.18;;
68821;SDS011;55834;50.870;4.606;2022-12-18T09:51:47;13.38;;;6.35;;
68821;SDS011;55834;50.870;4.606;2022-12-18T09:54:24;14.30;;;5.93;;
68821;SDS011;55834;50.870;4.606;2022-12-18T09:56:55;11.73;;;6.38;;
68821;SDS011;55834;50.870;4.606;2022-12-18T09:59:23;17.80;;;6.85;;
68821;SDS011;55834;50.870;4.606;2022-12-18T10:01:51;11.57;;;7.25;;
68821;SDS011;55834;50.870;4.606;2022-12-18T10:04:16;15.33;;;7.03;;
68821;SDS011;55834;50.870;4.606;2022-12-18T10:09:28;24.17;;;11.27;;
68821;SDS011;55834;50.870;4.606;2022-12-18T10:17:13;13.23;;;6.97;;
68821;SDS011;55834;50.870;4.606;2022-12-18T10:19:49;12.05;;;7.18;;
68821;SDS011;55834;50.870;4.606;2022-12-18T10:22:25;12.55;;;6.70;;
68821;SDS011;55834;50.870;4.606;2022-12-18T10:25:03;11.98;;;5.82;;
68821;SDS011;55834;50.870;4.606;2022-12-18T10:27:30;12.18;;;6.85;;
68821;SDS011;55834;50.870;4.606;2022-12-18T10:29:56;12.48;;;6.43;;
68821;SDS011;55834;50.870;4.606;2022-12-18T10:32:23;15.15;;;7.32;;
68821;SDS011;55834;50.870;4.606;2022-12-18T10:34:54;14.40;;;7.68;;
68821;SDS011;55834;50.870;4.606;2022-12-18T10:37:25;11.27;;;6.43;;
68821;SDS011;55834;50.870;4.606;2022-12-18T10:40:08;11.57;;;6.32;;
68821;SDS011;55834;50.870;4.606;2022-12-18T10:42:34;11.32;;;5.60;;
68821;SDS011;55834;50.870;4.606;2022-12-18T10:45:11;11.40;;;5.72;;
68821;SDS011;55834;50.870;4.606;2022-12-18T10:47:47;13.93;;;7.88;;
68821;SDS011;55834;50.870;4.606;2022-12-18T10:50:28;12.82;;;5.88;;
68821;SDS011;55834;50.870;4.606;2022-12-18T10:52:55;10.73;;;6.10;;
68821;SDS011;55834;50.870;4.606;2022-12-18T10:55:23;11.55;;;6.70;;
68821;SDS011;55834;50.870;4.606;2022-12-18T10:57:52;11.68;;;6.00;;
68821;SDS011;55834;50.870;4.606;2022-12-18T11:00:22;13.00;;;6.53;;
68821;SDS011;55834;50.870;4.606;2022-12-18T11:02:55;11.82;;;6.10;;
68821;SDS011;55834;50.870;4.606;2022-12-18T11:05:23;15.57;;;8.02;;
68821;SDS011;55834;50.870;4.606;2022-12-18T11:07:53;11.65;;;6.45;;
68821;SDS011;55834;50.870;4.606;2022-12-18T11:10:21;15.15;;;6.68;;
68821;SDS011;55834;50.870;4.606;2022-12-18T11:12:48;9.90;;;6.18;;
68821;SDS011;55834;50.870;4.606;2022-12-18T11:15:27;11.38;;;6.50;;
68821;SDS011;55834;50.870;4.606;2022-12-18T11:17:55;11.90;;;5.55;;
68821;SDS011;55834;50.870;4.606;2022-12-18T11:20:27;10.90;;;7.00;;
68821;SDS011;55834;50.870;4.606;2022-12-18T11:23:04;12.13;;;6.68;;
68821;SDS011;55834;50.870;4.606;2022-12-18T11:25:35;13.35;;;6.43;;
68821;SDS011;55834;50.870;4.606;2022-12-18T11:37:50;10.68;;;5.53;;
68821;SDS011;55834;50.870;4.606;2022-12-18T11:40:44;11.70;;;6.38;;
68821;SDS011;55834;50.870;4.606;2022-12-18T11:43:13;11.80;;;6.72;;
68821;SDS011;55834;50.870;4.606;2022-12-18T11:45:49;15.95;;;7.03;;
68821;SDS011;55834;50.870;4.606;2022-12-18T11:48:20;10.57;;;6.20;;
68821;SDS011;55834;50.870;4.606;2022-12-18T11:50:51;12.25;;;6.40;;
68821;SDS011;55834;50.870;4.606;2022-12-18T11:53:21;12.95;;;6.50;;
68821;SDS011;55834;50.870;4.606;2022-12-18T11:58:28;12.57;;;6.70;;
68821;SDS011;55834;50.870;4.606;2022-12-18T12:03:53;14.10;;;7.18;;
68821;SDS011;55834;50.870;4.606;2022-12-18T12:09:55;12.18;;;8.00;;
68821;SDS011;55834;50.870;4.606;2022-12-18T12:12:49;12.95;;;7.88;;
68821;SDS011;55834;50.870;4.606;2022-12-18T12:23:45;14.57;;;8.73;;
68821;SDS011;55834;50.870;4.606;2022-12-18T12:26:32;15.20;;;7.88;;
68821;SDS011;55834;50.870;4.606;2022-12-18T12:29:15;14.82;;;8.48;;
68821;SDS011;55834;50.870;4.606;2022-12-18T12:40:04;18.23;;;9.57;;
68821;SDS011;55834;50.870;4.606;2022-12-18T12:42:33;18.33;;;9.57;;
68821;SDS011;55834;50.870;4.606;2022-12-18T12:45:44;15.35;;;7.90;;
68821;SDS011;55834;50.870;4.606;2022-12-18T12:48:27;17.05;;;8.00;;
68821;SDS011;55834;50.870;4.606;2022-12-18T12:51:00;17.98;;;8.40;;
68821;SDS011;55834;50.870;4.606;2022-12-18T12:53:33;17.40;;;9.73;;
68821;SDS011;55834;50.870;4.606;2022-12-18T12:56:01;15.63;;;8.00;;
68821;SDS011;55834;50.870;4.606;2022-12-18T13:01:38;15.43;;;8.40;;
68821;SDS011;55834;50.870;4.606;2022-12-18T13:10:12;18.38;;;9.15;;
68821;SDS011;55834;50.870;4.606;2022-12-18T13:13:02;16.52;;;8.38;;
68821;SDS011;55834;50.870;4.606;2022-12-18T13:15:39;17.33;;;8.55;;
68821;SDS011;55834;50.870;4.606;2022-12-18T13:20:34;17.20;;;8.90;;
68821;SDS011;55834;50.870;4.606;2022-12-18T13:25:45;20.77;;;8.75;;
68821;SDS011;55834;50.870;4.606;2022-12-18T13:28:12;19.98;;;9.77;;
68821;SDS011;55834;50.870;4.606;2022-12-18T13:35:51;19.90;;;8.20;;
68821;SDS011;55834;50.870;4.606;2022-12-18T13:38:36;16.45;;;8.55;;
68821;SDS011;55834;50.870;4.606;2022-12-18T13:43:49;28.88;;;11.80;;
68821;SDS011;55834;50.870;4.606;2022-12-18T13:46:29;31.38;;;14.77;;
68821;SDS011;55834;50.870;4.606;2022-12-18T13:51:46;26.27;;;12.95;;
68821;SDS011;55834;50.870;4.606;2022-12-18T13:56:56;18.92;;;8.77;;
68821;SDS011;55834;50.870;4.606;2022-12-18T14:01:52;19.30;;;8.20;;
68821;SDS011;55834;50.870;4.606;2022-12-18T14:04:18;20.45;;;10.23;;
68821;SDS011;55834;50.870;4.606;2022-12-18T14:06:56;20.92;;;9.77;;
68821;SDS011;55834;50.870;4.606;2022-12-18T14:09:28;26.52;;;13.10;;
68821;SDS011;55834;50.870;4.606;2022-12-18T14:11:59;51.50;;;25.80;;
68821;SDS011;55834;50.870;4.606;2022-12-18T14:14:44;33.10;;;15.57;;
68821;SDS011;55834;50.870;4.606;2022-12-18T14:17:12;25.23;;;13.75;;
68821;SDS011;55834;50.870;4.606;2022-12-18T14:19:43;21.50;;;10.77;;
68821;SDS011;55834;50.870;4.606;2022-12-18T14:22:15;20.88;;;9.55;;
68821;SDS011;55834;50.870;4.606;2022-12-18T14:24:42;17.23;;;9.65;;
68821;SDS011;55834;50.870;4.606;2022-12-18T14:27:26;20.80;;;10.32;;
68821;SDS011;55834;50.870;4.606;2022-12-18T14:29:52;20.83;;;9.85;;
68821;SDS011;55834;50.870;4.606;2022-12-18T14:32:18;20.07;;;8.93;;
68821;SDS011;55834;50.870;4.606;2022-12-18T14:34:51;20.25;;;10.55;;
68821;SDS011;55834;50.870;4.606;2022-12-18T14:37:22;20.30;;;10.27;;
68821;SDS011;55834;50.870;4.606;2022-12-18T14:39:53;19.83;;;9.73;;
68821;SDS011;55834;50.870;4.606;2022-12-18T14:42:22;18.15;;;9.32;;
68821;SDS011;55834;50.870;4.606;2022-12-18T14:44:52;20.10;;;9.75;;
68821;SDS011;55834;50.870;4.606;2022-12-18T14:47:56;15.63;;;8.43;;
68821;SDS011;55834;50.870;4.606;2022-12-18T14:50:22;21.58;;;9.57;;
68821;SDS011;55834;50.870;4.606;2022-12-18T14:52:47;21.70;;;9.40;;
68821;SDS011;55834;50.870;4.606;2022-12-18T14:55:16;20.67;;;9.10;;
68821;SDS011;55834;50.870;4.606;2022-12-18T14:57:43;19.33;;;8.50;;
68821;SDS011;55834;50.870;4.606;2022-12-18T15:00:16;22.48;;;10.05;;
68821;SDS011;55834;50.870;4.606;2022-12-18T15:02:45;20.88;;;9.15;;
68821;SDS011;55834;50.870;4.606;2022-12-18T15:12:42;21.95;;;8.95;;
68821;SDS011;55834;50.870;4.606;2022-12-18T15:18:03;17.40;;;8.18;;
68821;SDS011;55834;50.870;4.606;2022-12-18T15:20:31;21.50;;;10.57;;
68821;SDS011;55834;50.870;4.606;2022-12-18T15:22:58;22.75;;;9.93;;
68821;SDS011;55834;50.870;4.606;2022-12-18T15:27:56;19.17;;;9.63;;
68821;SDS011;55834;50.870;4.606;2022-12-18T15:30:23;22.63;;;9.43;;
68821;SDS011;55834;50.870;4.606;2022-12-18T15:37:45;20.77;;;9.38;;
68821;SDS011;55834;50.870;4.606;2022-12-18T15:40:12;20.65;;;9.07;;
68821;SDS011;55834;50.870;4.606;2022-12-18T15:42:42;22.38;;;12.73;;
68821;SDS011;55834;50.870;4.606;2022-12-18T15:45:27;28.33;;;11.90;;
68821;SDS011;55834;50.870;4.606;2022-12-18T15:47:53;20.57;;;9.73;;
68821;SDS011;55834;50.870;4.606;2022-12-18T15:50:18;22.77;;;11.50;;
68821;SDS011;55834;50.870;4.606;2022-12-18T15:52:44;22.02;;;9.45;;
68821;SDS011;55834;50.870;4.606;2022-12-18T15:55:13;20.73;;;9.30;;
68821;SDS011;55834;50.870;4.606;2022-12-18T15:57:59;23.05;;;10.13;;
68821;SDS011;55834;50.870;4.606;2022-12-18T16:00:24;25.85;;;10.40;;
68821;SDS011;55834;50.870;4.606;2022-12-18T16:02:49;26.60;;;12.37;;
68821;SDS011;55834;50.870;4.606;2022-12-18T16:05:15;21.93;;;9.87;;
68821;SDS011;55834;50.870;4.606;2022-12-18T16:07:42;20.77;;;9.40;;
68821;SDS011;55834;50.870;4.606;2022-12-18T16:10:08;17.25;;;8.15;;
68821;SDS011;55834;50.870;4.606;2022-12-18T16:12:34;24.08;;;10.43;;
68821;SDS011;55834;50.870;4.606;2022-12-18T16:15:00;20.55;;;10.15;;
68821;SDS011;55834;50.870;4.606;2022-12-18T16:17:26;23.98;;;10.18;;
68821;SDS011;55834;50.870;4.606;2022-12-18T16:19:51;25.63;;;11.73;;
68821;SDS011;55834;50.870;4.606;2022-12-18T16:22:18;17.30;;;9.52;;
68821;SDS011;55834;50.870;4.606;2022-12-18T16:24:49;24.00;;;11.73;;
68821;SDS011;55834;50.870;4.606;2022-12-18T16:27:15;24.83;;;12.05;;
68821;SDS011;55834;50.870;4.606;2022-12-18T16:29:41;21.73;;;10.20;;
68821;SDS011;55834;50.870;4.606;2022-12-18T16:32:06;26.27;;;10.80;;
68821;SDS011;55834;50.870;4.606;2022-12-18T16:34:32;27.30;;;11.70;;
68821;SDS011;55834;50.870;4.606;2022-12-18T16:37:02;26.23;;;14.27;;
68821;SDS011;55834;50.870;4.606;2022-12-18T16:39:29;28.98;;;12.80;;
68821;SDS011;55834;50.870;4.606;2022-12-18T16:41:55;29.88;;;13.57;;
68821;SDS011;55834;50.870;4.606;2022-12-18T16:44:21;21.20;;;10.02;;